createdAt,value
2018-10-16T00:01:05.113Z,14.40
2018-10-16T00:03:37.744Z,14.30
2018-10-16T00:08:42.689Z,14.30
2018-10-16T00:11:15.345Z,14.20
2018-10-16T00:13:47.838Z,14.20
2018-10-16T00:16:20.383Z,14.20
2018-10-16T00:18:52.897Z,14.20
2018-10-16T00:21:25.384Z,14.20
2018-10-16T00:23:57.875Z,14.00
2018-10-16T00:26:30.457Z,14.10
2018-10-16T00:29:03.048Z,14.00
2018-10-16T00:31:35.562Z,14.00
2018-10-16T00:34:08.516Z,14.00
2018-10-16T00:36:41.069Z,14.10
2018-10-16T00:39:14.827Z,14.10
2018-10-16T00:41:54.517Z,14.10
2018-10-16T00:44:27.048Z,14.00
2018-10-16T00:46:59.554Z,14.00
2018-10-16T00:49:32.020Z,13.90
2018-10-16T00:52:04.676Z,13.80
2018-10-16T00:54:37.178Z,13.80
2018-10-16T00:57:09.633Z,13.90
2018-10-16T00:59:42.370Z,13.80
2018-10-16T01:02:14.834Z,13.80
2018-10-16T01:04:47.345Z,13.80
2018-10-16T01:07:19.856Z,13.70
2018-10-16T01:09:52.361Z,13.70
2018-10-16T01:12:24.874Z,13.70
2018-10-16T01:14:57.462Z,13.80
2018-10-16T01:17:30.073Z,13.80
2018-10-16T01:20:02.935Z,13.70
2018-10-16T01:22:35.447Z,13.70
2018-10-16T01:25:09.993Z,13.60
2018-10-16T01:27:42.490Z,13.60
2018-10-16T01:30:15.020Z,13.70
2018-10-16T01:32:47.456Z,13.50
2018-10-16T01:35:19.964Z,13.50
2018-10-16T01:37:52.464Z,13.50
2018-10-16T01:40:24.986Z,13.50
2018-10-16T01:42:57.473Z,13.50
2018-10-16T01:45:29.944Z,13.50
2018-10-16T01:48:02.526Z,13.40
2018-10-16T01:53:07.485Z,13.30
2018-10-16T01:55:40.338Z,13.30
2018-10-16T01:58:12.766Z,13.20
2018-10-16T02:00:45.316Z,13.20
2018-10-16T02:03:17.763Z,13.20
2018-10-16T02:05:50.316Z,13.20
2018-10-16T02:08:22.861Z,13.20
2018-10-16T02:10:55.365Z,13.20
2018-10-16T02:13:27.886Z,13.20
2018-10-16T02:16:00.409Z,13.10
2018-10-16T02:18:32.893Z,13.20
2018-10-16T02:21:05.515Z,13.20
2018-10-16T02:23:38.041Z,13.20
2018-10-16T02:26:11.285Z,13.20
2018-10-16T02:28:44.113Z,13.20
2018-10-16T02:31:16.592Z,13.30
2018-10-16T02:33:49.122Z,13.20
2018-10-16T02:36:21.873Z,13.30
2018-10-16T02:38:54.500Z,13.20
2018-10-16T02:41:26.995Z,13.20
2018-10-16T02:43:59.475Z,13.20
2018-10-16T02:46:32.462Z,13.10
2018-10-16T02:49:05.058Z,13.00
2018-10-16T02:51:37.559Z,13.00
2018-10-16T02:54:10.108Z,13.20
2018-10-16T02:56:42.679Z,13.10
2018-10-16T02:59:15.157Z,13.10
2018-10-16T03:01:47.630Z,13.10
2018-10-16T03:04:20.109Z,13.10
2018-10-16T03:06:52.809Z,13.10
2018-10-16T03:09:26.776Z,13.10
2018-10-16T03:11:59.369Z,13.10
2018-10-16T03:14:31.827Z,13.10
2018-10-16T03:17:04.649Z,13.10
2018-10-16T03:19:37.391Z,13.10
2018-10-16T03:22:09.897Z,13.10
2018-10-16T03:24:42.335Z,13.10
2018-10-16T03:27:15.214Z,13.00
2018-10-16T03:29:48.457Z,13.00
2018-10-16T03:32:20.943Z,13.00
2018-10-16T03:34:53.457Z,13.00
2018-10-16T03:37:25.929Z,13.00
2018-10-16T03:39:58.467Z,13.10
2018-10-16T03:42:30.959Z,13.10
2018-10-16T03:45:03.790Z,13.00
2018-10-16T03:47:36.615Z,13.00
2018-10-16T03:50:10.251Z,13.00
2018-10-16T03:52:42.728Z,12.90
2018-10-16T03:55:15.212Z,12.90
2018-10-16T03:57:47.765Z,12.90
2018-10-16T04:00:20.227Z,12.80
2018-10-16T04:02:53.284Z,12.80
2018-10-16T04:05:26.517Z,12.80
2018-10-16T04:07:59.327Z,12.80
2018-10-16T04:10:31.954Z,12.90
2018-10-16T04:13:05.011Z,12.90
2018-10-16T04:15:37.584Z,13.00
2018-10-16T04:18:10.011Z,12.90
2018-10-16T04:20:42.544Z,12.90
2018-10-16T04:23:14.962Z,12.90
2018-10-16T04:25:48.095Z,12.90
2018-10-16T04:28:20.677Z,12.90
2018-10-16T04:30:53.582Z,12.80
2018-10-16T04:33:26.300Z,12.80
2018-10-16T04:35:58.896Z,12.80
2018-10-16T04:38:31.336Z,12.70
2018-10-16T04:41:03.975Z,12.70
2018-10-16T04:43:36.552Z,12.70
2018-10-16T04:46:08.998Z,12.70
2018-10-16T04:48:41.556Z,12.70
2018-10-16T04:51:14.101Z,12.70
2018-10-16T04:53:46.649Z,12.60
2018-10-16T04:56:19.152Z,12.60
2018-10-16T04:58:51.640Z,12.60
2018-10-16T05:01:24.101Z,12.60
2018-10-16T05:03:56.685Z,12.60
2018-10-16T05:06:29.171Z,12.50
2018-10-16T05:09:01.787Z,12.50
2018-10-16T05:11:38.943Z,12.50
2018-10-16T05:14:11.449Z,12.50
2018-10-16T05:16:43.981Z,12.50
2018-10-16T05:21:48.968Z,12.30
2018-10-16T05:24:21.456Z,12.30
2018-10-16T05:26:53.983Z,12.30
2018-10-16T05:29:26.426Z,12.20
2018-10-16T05:31:59.117Z,12.20
2018-10-16T05:34:31.649Z,12.10
2018-10-16T05:37:04.748Z,12.20
2018-10-16T05:39:37.450Z,12.10
2018-10-16T05:42:10.052Z,12.00
2018-10-16T05:44:42.636Z,12.00
2018-10-16T05:47:15.138Z,12.10
2018-10-16T05:49:47.611Z,12.00
2018-10-16T05:52:20.251Z,11.90
2018-10-16T05:54:52.685Z,12.00
2018-10-16T05:57:25.657Z,12.00
2018-10-16T06:00:09.714Z,12.10
2018-10-16T06:02:42.667Z,12.10
2018-10-16T06:05:15.198Z,12.00
2018-10-16T06:07:47.804Z,12.10
2018-10-16T06:10:20.274Z,12.20
2018-10-16T06:12:52.789Z,12.30
2018-10-16T06:15:25.353Z,12.60
2018-10-16T06:17:57.926Z,12.70
2018-10-16T06:20:30.475Z,12.60
2018-10-16T06:23:03.010Z,12.60
2018-10-16T06:25:35.729Z,12.70
2018-10-16T06:28:19.519Z,12.60
2018-10-16T06:30:52.122Z,12.70
2018-10-16T06:33:26.403Z,12.80
2018-10-16T06:35:58.875Z,12.90
2018-10-16T06:38:31.415Z,12.90
2018-10-16T06:41:04.498Z,12.90
2018-10-16T06:43:37.005Z,12.90
2018-10-16T06:46:09.479Z,13.00
2018-10-16T06:48:42.640Z,13.10
2018-10-16T06:51:14.891Z,13.10
2018-10-16T06:53:47.664Z,13.10
2018-10-16T06:56:20.171Z,13.20
2018-10-16T06:58:52.631Z,13.20
2018-10-16T07:01:25.163Z,13.30
2018-10-16T07:03:57.934Z,13.40
2018-10-16T07:06:30.509Z,13.40
2018-10-16T07:09:03.997Z,13.40
2018-10-16T07:11:37.945Z,13.40
2018-10-16T07:14:11.517Z,13.50
2018-10-16T07:16:44.131Z,13.60
2018-10-16T07:19:16.629Z,13.60
2018-10-16T07:21:49.339Z,13.70
2018-10-16T07:24:21.957Z,13.70
2018-10-16T07:26:54.723Z,13.80
2018-10-16T07:29:27.476Z,13.90
2018-10-16T07:32:00.029Z,14.00
2018-10-16T07:34:32.837Z,14.10
2018-10-16T07:37:05.685Z,14.10
2018-10-16T07:39:38.269Z,14.20
2018-10-16T07:42:10.846Z,14.20
2018-10-16T07:44:43.521Z,14.30
2018-10-16T07:47:16.073Z,14.40
2018-10-16T07:49:48.706Z,14.50
2018-10-16T07:54:53.757Z,14.70
2018-10-16T07:57:26.325Z,14.80
2018-10-16T07:59:58.877Z,14.80
2018-10-16T08:02:31.454Z,14.80
2018-10-16T08:05:04.672Z,14.80
2018-10-16T08:07:37.632Z,14.80
2018-10-16T08:10:13.532Z,14.90
2018-10-16T08:12:46.742Z,14.90
2018-10-16T08:15:19.488Z,15.00
2018-10-16T08:17:52.564Z,15.10
2018-10-16T08:20:25.195Z,15.10
2018-10-16T08:22:57.993Z,15.10
2018-10-16T08:25:30.578Z,15.40
2018-10-16T08:28:03.558Z,15.30
2018-10-16T08:30:36.072Z,15.50
2018-10-16T08:33:09.049Z,15.50
2018-10-16T08:35:41.625Z,15.60
2018-10-16T08:38:25.568Z,15.50
2018-10-16T08:40:58.100Z,15.60
2018-10-16T08:43:44.705Z,15.80
2018-10-16T08:46:28.936Z,15.70
2018-10-16T08:49:12.716Z,15.80
2018-10-16T08:51:47.699Z,15.90
2018-10-16T08:54:20.661Z,15.80
2018-10-16T08:56:53.210Z,16.00
2018-10-16T08:59:25.709Z,16.10
2018-10-16T09:04:30.975Z,16.00
2018-10-16T09:07:03.569Z,15.90
2018-10-16T09:09:36.053Z,16.10
2018-10-16T09:12:08.488Z,15.40
2018-10-16T09:14:41.000Z,16.10
2018-10-16T09:19:46.083Z,16.40
2018-10-16T09:22:18.555Z,16.50
2018-10-16T09:24:52.638Z,16.60
2018-10-16T09:27:25.650Z,16.70
2018-10-16T09:29:58.271Z,16.60
2018-10-16T09:32:31.322Z,16.50
2018-10-16T09:35:04.286Z,16.40
2018-10-16T09:37:36.958Z,16.50
2018-10-16T09:40:11.080Z,16.50
2018-10-16T09:42:43.705Z,16.70
2018-10-16T09:45:16.210Z,16.80
2018-10-16T09:47:49.096Z,17.00
2018-10-16T09:50:21.909Z,17.00
2018-10-16T09:52:54.456Z,17.10
2018-10-16T09:55:26.980Z,17.20
2018-10-16T09:57:59.556Z,17.40
2018-10-16T10:00:37.948Z,17.50
2018-10-16T10:03:10.823Z,17.40
2018-10-16T10:05:43.410Z,17.40
2018-10-16T10:08:16.096Z,17.30
2018-10-16T10:10:48.734Z,17.30
2018-10-16T10:13:21.213Z,17.40
2018-10-16T10:15:53.638Z,17.40
2018-10-16T10:18:26.253Z,17.50
2018-10-16T10:20:58.674Z,17.80
2018-10-16T10:23:32.369Z,17.80
2018-10-16T10:26:05.104Z,17.90
2018-10-16T10:28:37.723Z,17.90
2018-10-16T10:31:10.203Z,17.70
2018-10-16T10:33:43.045Z,17.80
2018-10-16T10:36:15.482Z,18.00
2018-10-16T10:38:48.193Z,18.00
2018-10-16T10:41:20.822Z,17.90
2018-10-16T10:43:53.349Z,18.10
2018-10-16T10:46:26.256Z,18.00
2018-10-16T10:51:31.473Z,18.40
2018-10-16T10:54:04.093Z,18.40
2018-10-16T10:56:36.702Z,18.50
2018-10-16T10:59:09.370Z,18.50
2018-10-16T11:01:41.829Z,18.60
2018-10-16T11:04:14.433Z,18.60
2018-10-16T11:06:47.037Z,18.60
2018-10-16T11:09:19.608Z,18.60
2018-10-16T11:11:53.739Z,18.50
2018-10-16T11:14:27.123Z,18.60
2018-10-16T11:16:59.690Z,18.70
2018-10-16T11:19:32.451Z,18.70
2018-10-16T11:22:04.987Z,18.60
2018-10-16T11:24:37.666Z,18.80
2018-10-16T11:27:10.231Z,18.90
2018-10-16T11:29:42.751Z,19.10
2018-10-16T11:32:15.379Z,19.10
2018-10-16T11:34:47.851Z,19.10
2018-10-16T11:37:20.406Z,19.10
2018-10-16T11:39:53.211Z,19.00
2018-10-16T11:42:25.690Z,19.00
2018-10-16T11:44:58.455Z,18.90
2018-10-16T11:47:31.093Z,19.10
2018-10-16T11:50:04.173Z,19.20
2018-10-16T11:52:36.707Z,19.40
2018-10-16T11:55:10.409Z,19.70
2018-10-16T11:57:42.977Z,19.70
2018-10-16T12:00:17.145Z,19.90
2018-10-16T12:02:49.765Z,19.90
2018-10-16T12:05:22.633Z,19.80
2018-10-16T12:07:55.299Z,19.80
2018-10-16T12:10:27.972Z,19.90
2018-10-16T12:13:01.158Z,19.90
2018-10-16T12:15:33.937Z,19.80
2018-10-16T12:18:13.070Z,19.70
2018-10-16T12:21:06.253Z,19.70
2018-10-16T12:23:38.758Z,19.80
2018-10-16T12:26:11.935Z,19.80
2018-10-16T12:28:44.613Z,19.90
2018-10-16T12:31:17.130Z,19.90
2018-10-16T12:33:49.633Z,19.90
2018-10-16T12:36:22.292Z,19.80
2018-10-16T12:38:54.991Z,19.80
2018-10-16T12:41:27.641Z,19.90
2018-10-16T12:44:00.159Z,19.90
2018-10-16T12:46:32.823Z,19.80
2018-10-16T12:49:05.378Z,19.60
2018-10-16T12:51:37.992Z,19.70
2018-10-16T12:54:10.645Z,19.70
2018-10-16T12:56:43.207Z,19.80
2018-10-16T12:59:15.737Z,19.80
2018-10-16T13:01:52.020Z,20.00
2018-10-16T13:04:24.543Z,20.00
2018-10-16T13:07:01.030Z,20.00
2018-10-16T13:09:33.677Z,20.00
2018-10-16T13:12:06.162Z,20.00
2018-10-16T13:14:38.807Z,20.00
2018-10-16T13:17:11.370Z,20.00
2018-10-16T13:19:43.933Z,20.10
2018-10-16T13:22:16.533Z,19.90
2018-10-16T13:24:49.264Z,19.90
2018-10-16T13:27:21.771Z,19.90
2018-10-16T13:29:55.069Z,19.90
2018-10-16T13:32:27.996Z,19.80
2018-10-16T13:35:00.997Z,19.70
2018-10-16T13:37:33.449Z,19.60
2018-10-16T13:40:07.037Z,19.70
2018-10-16T13:42:39.691Z,19.70
2018-10-16T13:45:13.694Z,19.90
2018-10-16T13:47:46.404Z,19.80
2018-10-16T13:50:19.003Z,19.80
2018-10-16T13:52:51.509Z,19.80
2018-10-16T13:55:24.103Z,19.80
2018-10-16T13:57:56.723Z,19.80
2018-10-16T14:00:29.823Z,19.70
2018-10-16T14:03:02.448Z,19.70
2018-10-16T14:05:35.127Z,19.60
2018-10-16T14:08:07.760Z,19.50
2018-10-16T14:10:40.364Z,19.50
2018-10-16T14:13:12.876Z,19.40
2018-10-16T14:15:45.493Z,19.50
2018-10-16T14:18:18.111Z,19.50
2018-10-16T14:20:50.632Z,19.50
2018-10-16T14:23:23.441Z,19.40
2018-10-16T14:25:56.085Z,19.40
2018-10-16T14:28:28.634Z,19.40
2018-10-16T14:31:01.222Z,19.40
2018-10-16T14:33:33.870Z,19.40
2018-10-16T14:36:06.400Z,19.40
2018-10-16T14:38:38.942Z,19.30
2018-10-16T14:41:11.532Z,19.30
2018-10-16T14:43:44.159Z,19.20
2018-10-16T14:46:16.955Z,19.20
2018-10-16T14:48:49.441Z,19.20
2018-10-16T14:51:22.063Z,19.20
2018-10-16T14:53:54.618Z,19.10
2018-10-16T14:56:27.606Z,19.10
2018-10-16T14:59:00.109Z,18.90
2018-10-16T15:01:32.634Z,18.90
2018-10-16T15:04:05.397Z,18.90
2018-10-16T15:06:38.047Z,18.90
2018-10-16T15:09:11.162Z,18.80
2018-10-16T15:11:43.710Z,18.70
2018-10-16T15:14:16.263Z,18.70
2018-10-16T15:16:48.785Z,18.70
2018-10-16T15:19:21.397Z,18.70
2018-10-16T15:21:54.008Z,18.70
2018-10-16T15:24:26.566Z,18.60
2018-10-16T15:26:59.192Z,18.50
2018-10-16T15:29:31.648Z,18.60
2018-10-16T15:32:04.199Z,18.50
2018-10-16T15:34:36.755Z,18.40
2018-10-16T15:37:09.402Z,18.30
2018-10-16T15:39:42.342Z,18.30
2018-10-16T15:42:15.038Z,18.20
2018-10-16T15:44:47.590Z,18.20
2018-10-16T15:47:20.211Z,18.20
2018-10-16T15:49:52.734Z,18.10
2018-10-16T15:52:25.311Z,18.00
2018-10-16T15:54:57.787Z,18.00
2018-10-16T15:57:30.316Z,17.90
2018-10-16T16:00:02.884Z,17.80
2018-10-16T16:02:35.493Z,17.80
2018-10-16T16:05:08.257Z,17.80
2018-10-16T16:07:40.789Z,17.70
2018-10-16T16:10:14.803Z,17.60
2018-10-16T16:12:47.180Z,17.60
2018-10-16T16:15:19.680Z,17.50
2018-10-16T16:17:52.267Z,17.30
2018-10-16T16:20:24.808Z,17.20
2018-10-16T16:22:57.383Z,17.10
2018-10-16T16:25:30.739Z,17.10
2018-10-16T16:28:03.427Z,17.00
2018-10-16T16:30:35.937Z,16.90
2018-10-16T16:33:08.447Z,16.80
2018-10-16T16:35:40.974Z,16.80
2018-10-16T16:38:13.894Z,16.70
2018-10-16T16:40:46.387Z,16.60
2018-10-16T16:43:19.000Z,16.50
2018-10-16T16:45:51.620Z,16.40
2018-10-16T16:48:24.243Z,16.30
2018-10-16T16:50:56.892Z,16.30
2018-10-16T16:53:29.482Z,16.30
2018-10-16T16:56:02.207Z,16.20
2018-10-16T16:58:35.237Z,16.10
2018-10-16T17:01:07.879Z,16.10
2018-10-16T17:03:40.421Z,16.00
2018-10-16T17:06:13.061Z,16.00
2018-10-16T17:08:45.624Z,16.00
2018-10-16T17:11:18.461Z,16.00
2018-10-16T17:13:50.962Z,15.90
2018-10-16T17:16:23.680Z,15.90
2018-10-16T17:18:56.364Z,16.00
2018-10-16T17:21:28.890Z,16.00
2018-10-16T17:24:01.420Z,16.00
2018-10-16T17:26:34.306Z,16.00
2018-10-16T17:29:06.851Z,15.90
2018-10-16T17:31:39.336Z,15.80
2018-10-16T17:34:11.943Z,15.80
2018-10-16T17:36:44.517Z,15.80
2018-10-16T17:39:17.006Z,15.80
2018-10-16T17:41:49.470Z,15.80
2018-10-16T17:44:22.120Z,15.80
2018-10-16T17:46:54.809Z,15.80
2018-10-16T17:49:27.272Z,15.80
2018-10-16T17:52:00.041Z,15.70
2018-10-16T17:54:32.486Z,15.70
2018-10-16T17:57:05.129Z,15.70
2018-10-16T17:59:37.634Z,15.60
2018-10-16T18:02:10.383Z,15.60
2018-10-16T18:04:43.019Z,15.70
2018-10-16T18:07:16.640Z,15.60
2018-10-16T18:09:49.213Z,15.60
2018-10-16T18:12:21.658Z,15.60
2018-10-16T18:14:54.146Z,15.60
2018-10-16T18:17:26.596Z,15.60
2018-10-16T18:19:59.052Z,15.50
2018-10-16T18:22:31.523Z,15.50
2018-10-16T18:25:04.991Z,15.50
2018-10-16T18:27:37.628Z,15.40
2018-10-16T18:30:10.483Z,15.40
2018-10-16T18:32:43.186Z,15.50
2018-10-16T18:35:15.942Z,15.40
2018-10-16T18:37:48.449Z,15.40
2018-10-16T18:42:53.333Z,15.40
2018-10-16T18:45:25.866Z,15.20
2018-10-16T18:47:59.730Z,15.20
2018-10-16T18:50:32.181Z,15.20
2018-10-16T18:53:04.988Z,15.10
2018-10-16T18:55:37.486Z,15.10
2018-10-16T18:58:10.003Z,15.10
2018-10-16T19:00:42.454Z,15.10
2018-10-16T19:03:15.013Z,15.10
2018-10-16T19:05:47.398Z,15.10
2018-10-16T19:08:20.680Z,15.00
2018-10-16T19:10:53.174Z,14.90
2018-10-16T19:13:25.612Z,15.00
2018-10-16T19:15:58.070Z,14.90
2018-10-16T19:18:30.583Z,14.90
2018-10-16T19:21:03.100Z,14.90
2018-10-16T19:23:35.611Z,14.90
2018-10-16T19:28:41.916Z,14.80
2018-10-16T19:31:14.393Z,14.80
2018-10-16T19:33:46.867Z,14.70
2018-10-16T19:36:19.338Z,14.70
2018-10-16T19:41:24.240Z,14.70
2018-10-16T19:43:57.015Z,14.70
2018-10-16T19:46:29.542Z,14.60
2018-10-16T19:49:03.043Z,14.60
2018-10-16T19:54:07.891Z,14.60
2018-10-16T19:56:40.465Z,14.50
2018-10-16T19:59:12.993Z,14.50
2018-10-16T20:01:45.494Z,14.50
2018-10-16T20:04:18.010Z,14.50
2018-10-16T20:06:50.454Z,14.50
2018-10-16T20:09:24.122Z,14.40
2018-10-16T20:11:56.542Z,14.40
2018-10-16T20:14:29.260Z,14.40
2018-10-16T20:17:01.689Z,14.40
2018-10-16T20:22:08.024Z,14.30
2018-10-16T20:24:40.816Z,14.20
2018-10-16T20:27:13.308Z,14.30
2018-10-16T20:29:45.908Z,14.30
2018-10-16T20:32:18.406Z,14.20
2018-10-16T20:34:50.959Z,14.20
2018-10-16T20:37:23.344Z,14.20
2018-10-16T20:39:56.190Z,14.20
2018-10-16T20:42:28.645Z,14.20
2018-10-16T20:45:01.414Z,14.20
2018-10-16T20:47:34.031Z,14.20
2018-10-16T20:50:06.874Z,14.20
2018-10-16T20:52:39.382Z,14.10
2018-10-16T20:55:11.975Z,14.10
2018-10-16T20:57:44.536Z,14.10
2018-10-16T21:00:16.968Z,14.10
2018-10-16T21:02:49.940Z,14.10
2018-10-16T21:05:22.693Z,14.10
2018-10-16T21:07:55.134Z,14.00
2018-10-16T21:10:28.385Z,14.00
2018-10-16T21:13:00.893Z,14.00
2018-10-16T21:15:33.374Z,13.90
2018-10-16T21:18:06.047Z,13.90
2018-10-16T21:20:38.794Z,13.90
2018-10-16T21:23:11.274Z,13.90
2018-10-16T21:25:43.697Z,13.90
2018-10-16T21:28:16.159Z,13.90
2018-10-16T21:30:49.056Z,13.70
2018-10-16T21:33:21.549Z,13.60
2018-10-16T21:35:54.220Z,13.50
2018-10-16T21:38:26.841Z,13.50
2018-10-16T21:40:59.360Z,13.50
2018-10-16T21:43:31.884Z,13.50
2018-10-16T21:46:05.025Z,13.40
2018-10-16T21:48:37.469Z,13.40
2018-10-16T21:51:10.060Z,13.40
2018-10-16T21:53:42.557Z,13.40
2018-10-16T21:56:15.036Z,13.40
2018-10-16T21:58:47.479Z,13.30
2018-10-16T22:03:57.069Z,13.20
2018-10-16T22:06:29.568Z,13.30
2018-10-16T22:09:02.012Z,13.30
2018-10-16T22:11:34.923Z,13.20
2018-10-16T22:14:08.018Z,13.20
2018-10-16T22:16:40.615Z,13.20
2018-10-16T22:19:13.115Z,13.10
2018-10-16T22:21:45.494Z,13.00
2018-10-16T22:24:17.937Z,13.10
2018-10-16T22:26:50.361Z,13.10
2018-10-16T22:29:22.971Z,13.20
2018-10-16T22:31:56.015Z,13.10
2018-10-16T22:34:28.439Z,13.10
2018-10-16T22:37:01.110Z,13.00
2018-10-16T22:39:33.501Z,13.00
2018-10-16T22:42:05.985Z,13.00
2018-10-16T22:44:38.443Z,12.90
2018-10-16T22:47:10.951Z,12.90
2018-10-16T22:49:43.378Z,12.90
2018-10-16T22:52:15.943Z,12.90
2018-10-16T22:54:48.360Z,12.80
2018-10-16T22:57:20.806Z,12.80
2018-10-16T22:59:53.334Z,12.90
2018-10-16T23:02:25.776Z,12.80
2018-10-16T23:04:58.285Z,12.80
2018-10-16T23:07:30.764Z,12.80
2018-10-16T23:10:03.377Z,12.80
2018-10-16T23:12:35.801Z,12.80
2018-10-16T23:15:09.553Z,12.80
2018-10-16T23:17:41.958Z,12.90
2018-10-16T23:20:14.493Z,12.70
2018-10-16T23:22:46.985Z,12.70
2018-10-16T23:25:19.441Z,12.60
2018-10-16T23:27:51.909Z,12.70
2018-10-16T23:30:24.455Z,12.60
2018-10-16T23:32:57.494Z,12.60
2018-10-16T23:35:29.918Z,12.70
2018-10-16T23:38:02.356Z,12.70
2018-10-16T23:40:34.822Z,12.70
2018-10-16T23:43:07.405Z,12.70
2018-10-16T23:45:39.852Z,12.70
2018-10-16T23:48:12.253Z,12.70
2018-10-16T23:50:44.716Z,12.60
2018-10-16T23:53:17.204Z,12.60
2018-10-16T23:55:49.671Z,12.50
2018-10-16T23:58:22.150Z,12.50
